Es Semara, Morocco
Current Conditions -  °F | °C
As of 11:00 PM on Saturday 20 Dec 2014 (Local Time) from GMML Reporting Station
Clear Clear  
Wind Chill: 63°   Ceiling: Unl
Heat Index: 63°   Visibility: 6mi
Dew Point: 59°   Wind: 17mph
Humidity: 88%   Direction: 40°NE
Pressure: 30.27"   Gusts: NA
Location:  26.68°N, 11.67°W
Report Text: GMML 202200Z 04015KT CAVOK 17/15 Q1025 NOSIG
Loading
Personal Weather Stations






























Interactive Weather Map New forecast layout! Learn more

10-Day Weather Forecast

Advertisements
Track Severe Weather on mobile